sensor_id;sensor_type;location;lat;lon;timestamp;P1;durP1;ratioP1;P2;durP2;ratioP2
35056;SDS011;21241;51.828;19.574;2023-08-24T00:02:20;3.60;;;3.30;;
35056;SDS011;21241;51.828;19.574;2023-08-24T00:04:48;4.10;;;3.70;;
35056;SDS011;21241;51.828;19.574;2023-08-24T00:07:15;4.00;;;3.70;;
35056;SDS011;21241;51.828;19.574;2023-08-24T00:09:44;4.30;;;3.90;;
35056;SDS011;21241;51.828;19.574;2023-08-24T00:12:12;3.70;;;3.40;;
35056;SDS011;21241;51.828;19.574;2023-08-24T00:14:40;4.20;;;3.90;;
35056;SDS011;21241;51.828;19.574;2023-08-24T00:17:08;3.50;;;3.10;;
35056;SDS011;21241;51.828;19.574;2023-08-24T00:19:36;3.70;;;3.40;;
35056;SDS011;21241;51.828;19.574;2023-08-24T00:22:03;4.30;;;3.20;;
35056;SDS011;21241;51.828;19.574;2023-08-24T00:24:31;3.80;;;3.30;;
35056;SDS011;21241;51.828;19.574;2023-08-24T00:26:59;3.60;;;3.30;;
35056;SDS011;21241;51.828;19.574;2023-08-24T00:29:27;3.40;;;3.20;;
35056;SDS011;21241;51.828;19.574;2023-08-24T00:31:54;3.80;;;3.10;;
35056;SDS011;21241;51.828;19.574;2023-08-24T00:34:22;3.70;;;3.40;;
35056;SDS011;21241;51.828;19.574;2023-08-24T00:36:50;3.90;;;3.20;;
35056;SDS011;21241;51.828;19.574;2023-08-24T00:39:18;4.20;;;3.80;;
35056;SDS011;21241;51.828;19.574;2023-08-24T00:41:46;4.30;;;3.90;;
35056;SDS011;21241;51.828;19.574;2023-08-24T00:44:14;4.40;;;4.10;;
35056;SDS011;21241;51.828;19.574;2023-08-24T00:46:42;4.80;;;4.30;;
35056;SDS011;21241;51.828;19.574;2023-08-24T00:49:12;5.00;;;4.50;;
35056;SDS011;21241;51.828;19.574;2023-08-24T00:51:40;5.40;;;4.90;;
35056;SDS011;21241;51.828;19.574;2023-08-24T00:54:08;6.00;;;5.30;;
35056;SDS011;21241;51.828;19.574;2023-08-24T00:56:36;5.00;;;4.50;;
35056;SDS011;21241;51.828;19.574;2023-08-24T00:59:04;5.80;;;5.30;;
35056;SDS011;21241;51.828;19.574;2023-08-24T01:01:33;5.40;;;4.90;;
35056;SDS011;21241;51.828;19.574;2023-08-24T01:04:01;4.60;;;4.20;;
35056;SDS011;21241;51.828;19.574;2023-08-24T01:06:30;5.90;;;5.20;;
35056;SDS011;21241;51.828;19.574;2023-08-24T01:08:59;5.60;;;4.80;;
35056;SDS011;21241;51.828;19.574;2023-08-24T01:14:41;5.10;;;4.70;;
35056;SDS011;21241;51.828;19.574;2023-08-24T01:17:12;4.60;;;4.20;;
35056;SDS011;21241;51.828;19.574;2023-08-24T01:19:43;4.40;;;4.10;;
35056;SDS011;21241;51.828;19.574;2023-08-24T01:25:04;5.50;;;4.90;;
35056;SDS011;21241;51.828;19.574;2023-08-24T01:27:36;6.00;;;5.10;;
35056;SDS011;21241;51.828;19.574;2023-08-24T01:30:05;4.80;;;4.40;;
35056;SDS011;21241;51.828;19.574;2023-08-24T01:32:34;5.30;;;4.60;;
35056;SDS011;21241;51.828;19.574;2023-08-24T01:35:04;5.30;;;4.60;;
35056;SDS011;21241;51.828;19.574;2023-08-24T01:37:33;4.70;;;4.30;;
35056;SDS011;21241;51.828;19.574;2023-08-24T01:40:06;4.70;;;4.30;;
35056;SDS011;21241;51.828;19.574;2023-08-24T01:45:11;5.00;;;4.50;;
35056;SDS011;21241;51.828;19.574;2023-08-24T01:47:40;5.10;;;4.50;;
35056;SDS011;21241;51.828;19.574;2023-08-24T01:50:09;5.10;;;4.70;;
35056;SDS011;21241;51.828;19.574;2023-08-24T01:52:40;5.20;;;4.80;;
35056;SDS011;21241;51.828;19.574;2023-08-24T01:55:08;5.60;;;4.80;;
35056;SDS011;21241;51.828;19.574;2023-08-24T01:57:35;5.40;;;4.90;;
35056;SDS011;21241;51.828;19.574;2023-08-24T02:00:05;5.50;;;4.90;;
35056;SDS011;21241;51.828;19.574;2023-08-24T02:02:46;6.20;;;4.70;;
35056;SDS011;21241;51.828;19.574;2023-08-24T02:05:15;5.70;;;4.80;;
35056;SDS011;21241;51.828;19.574;2023-08-24T02:07:43;6.10;;;5.50;;
35056;SDS011;21241;51.828;19.574;2023-08-24T02:10:10;5.30;;;4.90;;
35056;SDS011;21241;51.828;19.574;2023-08-24T02:12:38;5.70;;;5.20;;
35056;SDS011;21241;51.828;19.574;2023-08-24T02:15:06;5.10;;;4.70;;
35056;SDS011;21241;51.828;19.574;2023-08-24T02:17:36;5.40;;;4.70;;
35056;SDS011;21241;51.828;19.574;2023-08-24T02:20:05;5.10;;;4.50;;
35056;SDS011;21241;51.828;19.574;2023-08-24T02:22:35;5.30;;;4.80;;
35056;SDS011;21241;51.828;19.574;2023-08-24T02:25:03;5.40;;;4.90;;
35056;SDS011;21241;51.828;19.574;2023-08-24T02:27:32;5.70;;;4.20;;
35056;SDS011;21241;51.828;19.574;2023-08-24T02:30:00;6.70;;;5.20;;
35056;SDS011;21241;51.828;19.574;2023-08-24T02:32:29;5.20;;;4.80;;
35056;SDS011;21241;51.828;19.574;2023-08-24T02:34:58;5.20;;;4.70;;
35056;SDS011;21241;51.828;19.574;2023-08-24T02:37:30;5.80;;;5.20;;
35056;SDS011;21241;51.828;19.574;2023-08-24T02:39:58;5.70;;;5.20;;
35056;SDS011;21241;51.828;19.574;2023-08-24T02:42:26;6.60;;;5.20;;
35056;SDS011;21241;51.828;19.574;2023-08-24T02:44:54;6.60;;;5.00;;
35056;SDS011;21241;51.828;19.574;2023-08-24T02:47:22;5.60;;;5.10;;
35056;SDS011;21241;51.828;19.574;2023-08-24T02:49:50;8.30;;;5.20;;
35056;SDS011;21241;51.828;19.574;2023-08-24T02:52:17;5.10;;;4.60;;
35056;SDS011;21241;51.828;19.574;2023-08-24T02:54:45;5.90;;;5.40;;
35056;SDS011;21241;51.828;19.574;2023-08-24T02:57:13;5.10;;;4.60;;
35056;SDS011;21241;51.828;19.574;2023-08-24T02:59:41;5.50;;;5.00;;
35056;SDS011;21241;51.828;19.574;2023-08-24T03:02:11;5.50;;;5.00;;
35056;SDS011;21241;51.828;19.574;2023-08-24T03:04:39;5.50;;;5.00;;
35056;SDS011;21241;51.828;19.574;2023-08-24T03:07:06;5.20;;;4.60;;
35056;SDS011;21241;51.828;19.574;2023-08-24T03:09:35;5.10;;;4.60;;
35056;SDS011;21241;51.828;19.574;2023-08-24T03:12:04;5.50;;;5.00;;
35056;SDS011;21241;51.828;19.574;2023-08-24T03:14:32;5.80;;;5.20;;
35056;SDS011;21241;51.828;19.574;2023-08-24T03:17:00;5.60;;;4.80;;
35056;SDS011;21241;51.828;19.574;2023-08-24T03:19:29;5.90;;;4.90;;
35056;SDS011;21241;51.828;19.574;2023-08-24T03:21:57;5.60;;;4.80;;
35056;SDS011;21241;51.828;19.574;2023-08-24T03:24:25;5.60;;;4.20;;
35056;SDS011;21241;51.828;19.574;2023-08-24T03:26:54;4.60;;;4.30;;
35056;SDS011;21241;51.828;19.574;2023-08-24T03:29:22;5.70;;;5.10;;
35056;SDS011;21241;51.828;19.574;2023-08-24T03:31:50;5.50;;;4.60;;
35056;SDS011;21241;51.828;19.574;2023-08-24T03:34:17;5.30;;;4.90;;
35056;SDS011;21241;51.828;19.574;2023-08-24T03:36:45;5.80;;;5.30;;
35056;SDS011;21241;51.828;19.574;2023-08-24T03:39:13;5.00;;;4.60;;
35056;SDS011;21241;51.828;19.574;2023-08-24T03:41:44;4.80;;;4.40;;
35056;SDS011;21241;51.828;19.574;2023-08-24T03:44:12;5.80;;;4.90;;
35056;SDS011;21241;51.828;19.574;2023-08-24T03:46:40;5.90;;;4.80;;
35056;SDS011;21241;51.828;19.574;2023-08-24T03:49:08;6.70;;;5.10;;
35056;SDS011;21241;51.828;19.574;2023-08-24T03:51:35;6.50;;;5.40;;
35056;SDS011;21241;51.828;19.574;2023-08-24T03:54:04;4.90;;;4.50;;
35056;SDS011;21241;51.828;19.574;2023-08-24T03:56:33;5.80;;;5.10;;
35056;SDS011;21241;51.828;19.574;2023-08-24T03:59:01;5.90;;;5.20;;
35056;SDS011;21241;51.828;19.574;2023-08-24T04:01:29;6.50;;;5.40;;
35056;SDS011;21241;51.828;19.574;2023-08-24T04:03:57;5.60;;;4.90;;
35056;SDS011;21241;51.828;19.574;2023-08-24T04:06:28;6.50;;;5.30;;
35056;SDS011;21241;51.828;19.574;2023-08-24T04:08:56;5.30;;;4.80;;
35056;SDS011;21241;51.828;19.574;2023-08-24T04:11:23;5.70;;;5.20;;
35056;SDS011;21241;51.828;19.574;2023-08-24T04:13:52;5.10;;;4.60;;
35056;SDS011;21241;51.828;19.574;2023-08-24T04:16:20;6.30;;;5.20;;
35056;SDS011;21241;51.828;19.574;2023-08-24T04:18:48;6.10;;;5.50;;
35056;SDS011;21241;51.828;19.574;2023-08-24T04:21:16;5.60;;;5.00;;
35056;SDS011;21241;51.828;19.574;2023-08-24T04:23:43;5.00;;;4.60;;
35056;SDS011;21241;51.828;19.574;2023-08-24T04:26:12;6.10;;;5.50;;
35056;SDS011;21241;51.828;19.574;2023-08-24T04:28:40;5.40;;;4.80;;
35056;SDS011;21241;51.828;19.574;2023-08-24T04:31:08;7.80;;;5.00;;
35056;SDS011;21241;51.828;19.574;2023-08-24T04:33:36;6.00;;;4.60;;
35056;SDS011;21241;51.828;19.574;2023-08-24T04:36:04;5.00;;;4.60;;
35056;SDS011;21241;51.828;19.574;2023-08-24T04:38:32;5.30;;;4.80;;
35056;SDS011;21241;51.828;19.574;2023-08-24T04:41:00;6.00;;;5.40;;
35056;SDS011;21241;51.828;19.574;2023-08-24T04:43:28;5.30;;;4.80;;
35056;SDS011;21241;51.828;19.574;2023-08-24T04:45:56;5.60;;;4.90;;
35056;SDS011;21241;51.828;19.574;2023-08-24T04:48:24;6.00;;;4.80;;
35056;SDS011;21241;51.828;19.574;2023-08-24T04:50:53;4.70;;;4.30;;
35056;SDS011;21241;51.828;19.574;2023-08-24T04:53:23;6.90;;;5.00;;
35056;SDS011;21241;51.828;19.574;2023-08-24T04:55:52;6.30;;;5.30;;
35056;SDS011;21241;51.828;19.574;2023-08-24T04:58:21;5.30;;;4.70;;
35056;SDS011;21241;51.828;19.574;2023-08-24T05:00:50;5.30;;;4.70;;
35056;SDS011;21241;51.828;19.574;2023-08-24T05:03:18;5.70;;;4.80;;
35056;SDS011;21241;51.828;19.574;2023-08-24T05:05:47;4.80;;;4.40;;
35056;SDS011;21241;51.828;19.574;2023-08-24T05:08:15;7.10;;;5.10;;
35056;SDS011;21241;51.828;19.574;2023-08-24T05:10:43;5.40;;;4.90;;
35056;SDS011;21241;51.828;19.574;2023-08-24T05:13:11;5.60;;;5.00;;
35056;SDS011;21241;51.828;19.574;2023-08-24T05:15:38;5.40;;;5.00;;
35056;SDS011;21241;51.828;19.574;2023-08-24T05:18:06;5.30;;;4.80;;
35056;SDS011;21241;51.828;19.574;2023-08-24T05:20:34;8.50;;;5.50;;
35056;SDS011;21241;51.828;19.574;2023-08-24T05:23:02;5.90;;;4.40;;
35056;SDS011;21241;51.828;19.574;2023-08-24T05:25:30;5.90;;;4.90;;
35056;SDS011;21241;51.828;19.574;2023-08-24T05:27:57;6.10;;;4.80;;
35056;SDS011;21241;51.828;19.574;2023-08-24T05:30:25;6.10;;;4.90;;
35056;SDS011;21241;51.828;19.574;2023-08-24T05:32:57;6.10;;;5.20;;
35056;SDS011;21241;51.828;19.574;2023-08-24T05:35:25;18.40;;;17.00;;
35056;SDS011;21241;51.828;19.574;2023-08-24T05:37:55;7.40;;;6.50;;
35056;SDS011;21241;51.828;19.574;2023-08-24T05:40:23;8.30;;;7.60;;
35056;SDS011;21241;51.828;19.574;2023-08-24T05:42:50;12.30;;;11.10;;
35056;SDS011;21241;51.828;19.574;2023-08-24T05:45:18;6.50;;;5.40;;
35056;SDS011;21241;51.828;19.574;2023-08-24T05:47:46;6.10;;;5.20;;
35056;SDS011;21241;51.828;19.574;2023-08-24T05:50:14;8.80;;;5.40;;
35056;SDS011;21241;51.828;19.574;2023-08-24T05:52:41;5.30;;;4.80;;
35056;SDS011;21241;51.828;19.574;2023-08-24T05:55:09;6.90;;;5.30;;
35056;SDS011;21241;51.828;19.574;2023-08-24T05:57:37;7.30;;;5.60;;
35056;SDS011;21241;51.828;19.574;2023-08-24T06:00:05;6.40;;;4.80;;
35056;SDS011;21241;51.828;19.574;2023-08-24T06:02:40;7.10;;;4.20;;
35056;SDS011;21241;51.828;19.574;2023-08-24T06:05:09;5.80;;;4.50;;
35056;SDS011;21241;51.828;19.574;2023-08-24T06:07:36;5.90;;;4.60;;
35056;SDS011;21241;51.828;19.574;2023-08-24T06:10:04;5.20;;;4.30;;
35056;SDS011;21241;51.828;19.574;2023-08-24T06:12:33;6.70;;;4.70;;
35056;SDS011;21241;51.828;19.574;2023-08-24T06:15:01;6.40;;;4.60;;
35056;SDS011;21241;51.828;19.574;2023-08-24T06:17:31;4.60;;;3.90;;
35056;SDS011;21241;51.828;19.574;2023-08-24T06:19:59;4.50;;;3.70;;
35056;SDS011;21241;51.828;19.574;2023-08-24T06:22:27;6.10;;;3.70;;
35056;SDS011;21241;51.828;19.574;2023-08-24T06:24:55;5.70;;;3.70;;
35056;SDS011;21241;51.828;19.574;2023-08-24T06:27:27;7.00;;;4.20;;
35056;SDS011;21241;51.828;19.574;2023-08-24T06:29:55;4.30;;;3.80;;
35056;SDS011;21241;51.828;19.574;2023-08-24T06:32:22;4.40;;;3.80;;
35056;SDS011;21241;51.828;19.574;2023-08-24T06:34:50;6.40;;;4.30;;
35056;SDS011;21241;51.828;19.574;2023-08-24T06:37:19;6.70;;;4.00;;
35056;SDS011;21241;51.828;19.574;2023-08-24T06:39:46;5.60;;;4.10;;
35056;SDS011;21241;51.828;19.574;2023-08-24T06:42:14;6.30;;;4.50;;
35056;SDS011;21241;51.828;19.574;2023-08-24T06:44:42;6.30;;;4.50;;
35056;SDS011;21241;51.828;19.574;2023-08-24T06:47:10;4.90;;;4.20;;
35056;SDS011;21241;51.828;19.574;2023-08-24T06:49:37;4.60;;;4.20;;
35056;SDS011;21241;51.828;19.574;2023-08-24T06:52:05;4.80;;;4.00;;
35056;SDS011;21241;51.828;19.574;2023-08-24T06:54:33;4.20;;;3.70;;
35056;SDS011;21241;51.828;19.574;2023-08-24T06:57:00;6.80;;;4.30;;
35056;SDS011;21241;51.828;19.574;2023-08-24T06:59:28;3.90;;;3.60;;
35056;SDS011;21241;51.828;19.574;2023-08-24T07:01:56;4.00;;;3.60;;
35056;SDS011;21241;51.828;19.574;2023-08-24T07:04:26;5.70;;;4.10;;
35056;SDS011;21241;51.828;19.574;2023-08-24T07:06:54;6.30;;;4.90;;
35056;SDS011;21241;51.828;19.574;2023-08-24T07:09:22;5.90;;;5.00;;
35056;SDS011;21241;51.828;19.574;2023-08-24T07:11:50;5.00;;;4.10;;
35056;SDS011;21241;51.828;19.574;2023-08-24T07:14:18;5.40;;;4.80;;
35056;SDS011;21241;51.828;19.574;2023-08-24T07:16:45;5.70;;;4.80;;
35056;SDS011;21241;51.828;19.574;2023-08-24T07:19:14;5.20;;;4.40;;
35056;SDS011;21241;51.828;19.574;2023-08-24T07:21:43;6.20;;;4.70;;
35056;SDS011;21241;51.828;19.574;2023-08-24T07:24:11;5.10;;;4.20;;
35056;SDS011;21241;51.828;19.574;2023-08-24T07:26:40;5.00;;;4.20;;
35056;SDS011;21241;51.828;19.574;2023-08-24T07:29:08;4.60;;;4.10;;
35056;SDS011;21241;51.828;19.574;2023-08-24T07:31:37;4.70;;;4.20;;
35056;SDS011;21241;51.828;19.574;2023-08-24T07:34:06;4.50;;;3.90;;
35056;SDS011;21241;51.828;19.574;2023-08-24T07:36:34;5.30;;;4.10;;
35056;SDS011;21241;51.828;19.574;2023-08-24T07:39:01;5.90;;;4.10;;
35056;SDS011;21241;51.828;19.574;2023-08-24T07:41:29;4.90;;;4.30;;
35056;SDS011;21241;51.828;19.574;2023-08-24T07:43:57;4.70;;;4.20;;
35056;SDS011;21241;51.828;19.574;2023-08-24T07:46:25;5.10;;;4.70;;
35056;SDS011;21241;51.828;19.574;2023-08-24T07:48:53;4.90;;;4.20;;
35056;SDS011;21241;51.828;19.574;2023-08-24T07:51:21;4.20;;;3.60;;
35056;SDS011;21241;51.828;19.574;2023-08-24T07:53:49;5.00;;;3.70;;
35056;SDS011;21241;51.828;19.574;2023-08-24T07:56:19;4.90;;;3.80;;
35056;SDS011;21241;51.828;19.574;2023-08-24T07:58:47;4.70;;;4.00;;
35056;SDS011;21241;51.828;19.574;2023-08-24T08:01:15;4.30;;;3.70;;
35056;SDS011;21241;51.828;19.574;2023-08-24T08:03:43;4.10;;;3.40;;
35056;SDS011;21241;51.828;19.574;2023-08-24T08:06:10;4.90;;;4.00;;
35056;SDS011;21241;51.828;19.574;2023-08-24T08:08:40;4.00;;;3.60;;
35056;SDS011;21241;51.828;19.574;2023-08-24T08:11:07;4.50;;;3.40;;
35056;SDS011;21241;51.828;19.574;2023-08-24T08:13:35;5.10;;;3.50;;
35056;SDS011;21241;51.828;19.574;2023-08-24T08:16:03;4.00;;;3.60;;
35056;SDS011;21241;51.828;19.574;2023-08-24T08:18:32;5.30;;;3.80;;
35056;SDS011;21241;51.828;19.574;2023-08-24T08:21:01;4.00;;;3.50;;
35056;SDS011;21241;51.828;19.574;2023-08-24T08:23:29;3.60;;;2.90;;
35056;SDS011;21241;51.828;19.574;2023-08-24T08:25:57;3.60;;;3.30;;
35056;SDS011;21241;51.828;19.574;2023-08-24T08:28:25;3.30;;;3.10;;
35056;SDS011;21241;51.828;19.574;2023-08-24T08:30:55;3.60;;;3.20;;
35056;SDS011;21241;51.828;19.574;2023-08-24T08:33:23;3.90;;;3.50;;
35056;SDS011;21241;51.828;19.574;2023-08-24T08:35:51;4.40;;;4.00;;
35056;SDS011;21241;51.828;19.574;2023-08-24T08:38:19;4.10;;;3.10;;
35056;SDS011;21241;51.828;19.574;2023-08-24T08:40:49;4.40;;;3.40;;
35056;SDS011;21241;51.828;19.574;2023-08-24T08:43:18;3.30;;;3.00;;
35056;SDS011;21241;51.828;19.574;2023-08-24T08:45:48;4.40;;;3.10;;
35056;SDS011;21241;51.828;19.574;2023-08-24T08:48:17;4.10;;;3.60;;
35056;SDS011;21241;51.828;19.574;2023-08-24T08:50:47;4.50;;;3.50;;
35056;SDS011;21241;51.828;19.574;2023-08-24T08:53:21;3.30;;;3.00;;
35056;SDS011;21241;51.828;19.574;2023-08-24T08:55:53;4.20;;;3.10;;
35056;SDS011;21241;51.828;19.574;2023-08-24T08:58:22;3.90;;;3.60;;
35056;SDS011;21241;51.828;19.574;2023-08-24T09:00:50;3.40;;;3.10;;
35056;SDS011;21241;51.828;19.574;2023-08-24T09:03:19;3.90;;;3.00;;
35056;SDS011;21241;51.828;19.574;2023-08-24T09:05:47;2.90;;;2.60;;
35056;SDS011;21241;51.828;19.574;2023-08-24T09:08:16;3.20;;;2.90;;
35056;SDS011;21241;51.828;19.574;2023-08-24T09:10:44;3.40;;;3.10;;
35056;SDS011;21241;51.828;19.574;2023-08-24T09:13:12;3.30;;;3.00;;
35056;SDS011;21241;51.828;19.574;2023-08-24T09:15:41;3.50;;;3.20;;
35056;SDS011;21241;51.828;19.574;2023-08-24T09:18:08;3.40;;;3.10;;
35056;SDS011;21241;51.828;19.574;2023-08-24T09:20:36;3.40;;;3.10;;
35056;SDS011;21241;51.828;19.574;2023-08-24T09:23:04;3.40;;;3.10;;
35056;SDS011;21241;51.828;19.574;2023-08-24T09:25:32;3.40;;;2.80;;
35056;SDS011;21241;51.828;19.574;2023-08-24T09:28:00;3.70;;;3.00;;
35056;SDS011;21241;51.828;19.574;2023-08-24T09:30:32;4.10;;;3.70;;
35056;SDS011;21241;51.828;19.574;2023-08-24T09:33:12;3.80;;;2.80;;
35056;SDS011;21241;51.828;19.574;2023-08-24T09:35:40;3.30;;;3.00;;
35056;SDS011;21241;51.828;19.574;2023-08-24T09:38:21;4.00;;;3.10;;
35056;SDS011;21241;51.828;19.574;2023-08-24T09:40:50;4.00;;;3.50;;
35056;SDS011;21241;51.828;19.574;2023-08-24T09:43:19;3.00;;;2.80;;
35056;SDS011;21241;51.828;19.574;2023-08-24T09:45:51;4.00;;;3.50;;
35056;SDS011;21241;51.828;19.574;2023-08-24T09:48:20;3.40;;;3.20;;
35056;SDS011;21241;51.828;19.574;2023-08-24T09:50:50;3.70;;;3.30;;
35056;SDS011;21241;51.828;19.574;2023-08-24T09:53:19;3.10;;;2.90;;
35056;SDS011;21241;51.828;19.574;2023-08-24T09:55:55;3.50;;;3.00;;
35056;SDS011;21241;51.828;19.574;2023-08-24T09:58:27;3.10;;;2.90;;
35056;SDS011;21241;51.828;19.574;2023-08-24T10:00:55;3.00;;;2.70;;
35056;SDS011;21241;51.828;19.574;2023-08-24T10:03:27;3.70;;;3.30;;
35056;SDS011;21241;51.828;19.574;2023-08-24T10:05:56;3.40;;;3.10;;
35056;SDS011;21241;51.828;19.574;2023-08-24T10:08:36;4.00;;;3.40;;
35056;SDS011;21241;51.828;19.574;2023-08-24T10:11:05;4.20;;;3.00;;
35056;SDS011;21241;51.828;19.574;2023-08-24T10:16:09;3.20;;;3.00;;
35056;SDS011;21241;51.828;19.574;2023-08-24T10:18:40;4.70;;;3.40;;
35056;SDS011;21241;51.828;19.574;2023-08-24T10:21:08;3.90;;;3.00;;
35056;SDS011;21241;51.828;19.574;2023-08-24T10:23:36;4.70;;;3.10;;
35056;SDS011;21241;51.828;19.574;2023-08-24T10:26:09;3.80;;;3.10;;
35056;SDS011;21241;51.828;19.574;2023-08-24T10:28:38;3.20;;;3.00;;
35056;SDS011;21241;51.828;19.574;2023-08-24T10:31:06;3.40;;;3.10;;
35056;SDS011;21241;51.828;19.574;2023-08-24T10:33:34;3.10;;;2.90;;
35056;SDS011;21241;51.828;19.574;2023-08-24T10:36:04;4.00;;;2.70;;
35056;SDS011;21241;51.828;19.574;2023-08-24T10:38:34;3.20;;;2.80;;
35056;SDS011;21241;51.828;19.574;2023-08-24T10:41:04;4.10;;;3.30;;
35056;SDS011;21241;51.828;19.574;2023-08-24T10:43:39;3.70;;;3.20;;
35056;SDS011;21241;51.828;19.574;2023-08-24T10:46:11;3.90;;;2.90;;
35056;SDS011;21241;51.828;19.574;2023-08-24T10:51:17;3.60;;;3.20;;
35056;SDS011;21241;51.828;19.574;2023-08-24T10:53:53;3.40;;;3.20;;
35056;SDS011;21241;51.828;19.574;2023-08-24T10:56:35;3.30;;;3.10;;
35056;SDS011;21241;51.828;19.574;2023-08-24T10:59:17;7.00;;;3.90;;
35056;SDS011;21241;51.828;19.574;2023-08-24T11:04:20;3.60;;;3.30;;
35056;SDS011;21241;51.828;19.574;2023-08-24T11:06:52;3.50;;;3.30;;
35056;SDS011;21241;51.828;19.574;2023-08-24T11:09:44;3.60;;;3.30;;
35056;SDS011;21241;51.828;19.574;2023-08-24T11:12:13;3.30;;;3.10;;
35056;SDS011;21241;51.828;19.574;2023-08-24T11:14:51;4.00;;;3.60;;
35056;SDS011;21241;51.828;19.574;2023-08-24T11:17:22;3.70;;;3.30;;
35056;SDS011;21241;51.828;19.574;2023-08-24T11:19:53;3.30;;;2.90;;
35056;SDS011;21241;51.828;19.574;2023-08-24T11:22:24;3.40;;;3.10;;
35056;SDS011;21241;51.828;19.574;2023-08-24T11:24:52;3.50;;;3.20;;
35056;SDS011;21241;51.828;19.574;2023-08-24T11:27:20;3.80;;;3.50;;
35056;SDS011;21241;51.828;19.574;2023-08-24T11:29:57;4.00;;;3.50;;
35056;SDS011;21241;51.828;19.574;2023-08-24T11:32:27;3.60;;;3.30;;
35056;SDS011;21241;51.828;19.574;2023-08-24T11:34:55;3.50;;;3.30;;
35056;SDS011;21241;51.828;19.574;2023-08-24T11:37:23;3.40;;;3.10;;
35056;SDS011;21241;51.828;19.574;2023-08-24T11:39:51;3.70;;;3.40;;
35056;SDS011;21241;51.828;19.574;2023-08-24T11:42:18;3.50;;;3.20;;
35056;SDS011;21241;51.828;19.574;2023-08-24T11:44:47;3.70;;;3.40;;
35056;SDS011;21241;51.828;19.574;2023-08-24T11:47:16;3.40;;;3.20;;
35056;SDS011;21241;51.828;19.574;2023-08-24T11:49:43;4.00;;;3.50;;
35056;SDS011;21241;51.828;19.574;2023-08-24T11:52:11;3.90;;;3.60;;
35056;SDS011;21241;51.828;19.574;2023-08-24T11:54:43;3.80;;;3.30;;
35056;SDS011;21241;51.828;19.574;2023-08-24T11:57:12;3.80;;;3.30;;
35056;SDS011;21241;51.828;19.574;2023-08-24T11:59:40;3.70;;;3.40;;
35056;SDS011;21241;51.828;19.574;2023-08-24T12:02:08;3.80;;;3.40;;
35056;SDS011;21241;51.828;19.574;2023-08-24T12:04:40;3.50;;;3.10;;
35056;SDS011;21241;51.828;19.574;2023-08-24T12:07:11;3.90;;;3.10;;
35056;SDS011;21241;51.828;19.574;2023-08-24T12:09:40;3.40;;;3.20;;
35056;SDS011;21241;51.828;19.574;2023-08-24T12:12:15;4.20;;;3.90;;
35056;SDS011;21241;51.828;19.574;2023-08-24T12:14:45;3.50;;;3.20;;
35056;SDS011;21241;51.828;19.574;2023-08-24T12:17:15;3.50;;;3.30;;
35056;SDS011;21241;51.828;19.574;2023-08-24T12:19:44;3.60;;;3.30;;
35056;SDS011;21241;51.828;19.574;2023-08-24T12:22:26;3.50;;;3.20;;
35056;SDS011;21241;51.828;19.574;2023-08-24T12:24:53;3.50;;;3.20;;
35056;SDS011;21241;51.828;19.574;2023-08-24T12:27:25;3.40;;;3.10;;
35056;SDS011;21241;51.828;19.574;2023-08-24T12:29:54;3.60;;;3.30;;
35056;SDS011;21241;51.828;19.574;2023-08-24T12:32:21;4.50;;;3.30;;
35056;SDS011;21241;51.828;19.574;2023-08-24T12:34:54;3.80;;;3.40;;
35056;SDS011;21241;51.828;19.574;2023-08-24T12:37:23;3.70;;;3.40;;
35056;SDS011;21241;51.828;19.574;2023-08-24T12:39:50;3.80;;;3.50;;
35056;SDS011;21241;51.828;19.574;2023-08-24T12:42:18;4.00;;;3.60;;
35056;SDS011;21241;51.828;19.574;2023-08-24T12:44:46;5.00;;;3.50;;
35056;SDS011;21241;51.828;19.574;2023-08-24T12:47:14;3.70;;;3.40;;
35056;SDS011;21241;51.828;19.574;2023-08-24T12:49:41;3.40;;;3.20;;
35056;SDS011;21241;51.828;19.574;2023-08-24T12:52:09;3.80;;;3.50;;
35056;SDS011;21241;51.828;19.574;2023-08-24T12:54:37;3.70;;;3.40;;
35056;SDS011;21241;51.828;19.574;2023-08-24T12:57:05;4.90;;;3.30;;
35056;SDS011;21241;51.828;19.574;2023-08-24T12:59:32;3.40;;;3.10;;
35056;SDS011;21241;51.828;19.574;2023-08-24T13:02:00;3.40;;;3.10;;
35056;SDS011;21241;51.828;19.574;2023-08-24T13:04:28;3.40;;;3.10;;
35056;SDS011;21241;51.828;19.574;2023-08-24T13:06:58;4.30;;;3.70;;
35056;SDS011;21241;51.828;19.574;2023-08-24T13:09:26;4.20;;;3.90;;
35056;SDS011;21241;51.828;19.574;2023-08-24T13:11:54;3.80;;;3.50;;
35056;SDS011;21241;51.828;19.574;2023-08-24T13:14:22;5.40;;;3.10;;
35056;SDS011;21241;51.828;19.574;2023-08-24T13:16:50;3.50;;;3.20;;
35056;SDS011;21241;51.828;19.574;2023-08-24T13:19:17;3.90;;;3.50;;
35056;SDS011;21241;51.828;19.574;2023-08-24T13:21:45;4.00;;;3.20;;
35056;SDS011;21241;51.828;19.574;2023-08-24T13:24:13;3.40;;;3.20;;
35056;SDS011;21241;51.828;19.574;2023-08-24T13:26:40;4.90;;;3.20;;
35056;SDS011;21241;51.828;19.574;2023-08-24T13:29:08;3.50;;;3.00;;
35056;SDS011;21241;51.828;19.574;2023-08-24T13:31:36;3.40;;;3.10;;
35056;SDS011;21241;51.828;19.574;2023-08-24T13:34:04;4.30;;;3.60;;
35056;SDS011;21241;51.828;19.574;2023-08-24T13:36:34;3.50;;;3.20;;
35056;SDS011;21241;51.828;19.574;2023-08-24T13:39:02;3.20;;;3.00;;
35056;SDS011;21241;51.828;19.574;2023-08-24T13:41:32;3.20;;;3.00;;
35056;SDS011;21241;51.828;19.574;2023-08-24T13:43:59;3.50;;;3.20;;
35056;SDS011;21241;51.828;19.574;2023-08-24T13:46:27;3.10;;;2.90;;
35056;SDS011;21241;51.828;19.574;2023-08-24T13:48:55;3.10;;;2.90;;
35056;SDS011;21241;51.828;19.574;2023-08-24T13:51:23;2.90;;;2.60;;
35056;SDS011;21241;51.828;19.574;2023-08-24T13:53:51;3.50;;;3.20;;
35056;SDS011;21241;51.828;19.574;2023-08-24T13:56:18;3.20;;;2.90;;
35056;SDS011;21241;51.828;19.574;2023-08-24T13:58:46;4.00;;;3.30;;
35056;SDS011;21241;51.828;19.574;2023-08-24T14:01:14;3.70;;;3.40;;
35056;SDS011;21241;51.828;19.574;2023-08-24T14:03:42;3.30;;;3.10;;
35056;SDS011;21241;51.828;19.574;2023-08-24T14:06:11;3.20;;;3.00;;
35056;SDS011;21241;51.828;19.574;2023-08-24T14:08:39;3.20;;;2.90;;
35056;SDS011;21241;51.828;19.574;2023-08-24T14:11:06;3.10;;;2.90;;
35056;SDS011;21241;51.828;19.574;2023-08-24T14:13:34;3.60;;;3.30;;
35056;SDS011;21241;51.828;19.574;2023-08-24T14:16:02;3.50;;;2.60;;
35056;SDS011;21241;51.828;19.574;2023-08-24T14:18:30;4.70;;;3.30;;
35056;SDS011;21241;51.828;19.574;2023-08-24T14:20:58;3.10;;;2.80;;
35056;SDS011;21241;51.828;19.574;2023-08-24T14:23:26;3.40;;;3.10;;
35056;SDS011;21241;51.828;19.574;2023-08-24T14:25:54;3.20;;;2.90;;
35056;SDS011;21241;51.828;19.574;2023-08-24T14:28:22;3.60;;;3.20;;
35056;SDS011;21241;51.828;19.574;2023-08-24T14:30:50;3.10;;;2.90;;
35056;SDS011;21241;51.828;19.574;2023-08-24T14:33:18;4.20;;;2.90;;
35056;SDS011;21241;51.828;19.574;2023-08-24T14:35:52;3.10;;;2.80;;
35056;SDS011;21241;51.828;19.574;2023-08-24T14:38:20;3.20;;;2.90;;
35056;SDS011;21241;51.828;19.574;2023-08-24T14:40:48;3.40;;;3.10;;
35056;SDS011;21241;51.828;19.574;2023-08-24T14:43:16;3.40;;;3.10;;
35056;SDS011;21241;51.828;19.574;2023-08-24T14:45:44;3.60;;;2.80;;
35056;SDS011;21241;51.828;19.574;2023-08-24T14:48:13;3.30;;;3.00;;
35056;SDS011;21241;51.828;19.574;2023-08-24T14:50:41;4.10;;;2.80;;
35056;SDS011;21241;51.828;19.574;2023-08-24T14:53:09;4.20;;;2.80;;
35056;SDS011;21241;51.828;19.574;2023-08-24T14:55:39;3.60;;;2.90;;
35056;SDS011;21241;51.828;19.574;2023-08-24T14:58:08;3.60;;;3.10;;
35056;SDS011;21241;51.828;19.574;2023-08-24T15:00:36;3.00;;;2.50;;